Time;durP1;ratioP1;P1;durP2;ratioP2;P2;SDS_P1;SDS_P2;PMS_P1;PMS_P2;Temp;Humidity;BMP_temperature;BMP_pressure;BME280_temperature;BME280_humidity;BME280_pressure;Samples;Min_cycle;Max_cycle;Signal;HPM_P1;HPM_P2
2022/04/09 00:00:22;;;;;;;;;7.00;7.00;;;;;8.73;60.58;100473.63;2102477;27;47650;-52
2022/04/09 00:01:22;;;;;;;;;7.00;7.00;;;;;8.73;60.47;100471.00;2093526;28;47223;-53
2022/04/09 00:02:22;;;;;;;;;5.00;5.00;;;;;8.73;60.37;100476.28;2092730;28;47671;-52
2022/04/09 00:03:23;;;;;;;;;8.25;6.25;;;;;8.74;60.28;100476.25;2100355;27;47669;-50
2022/04/09 00:04:23;;;;;;;;;7.00;5.00;;;;;8.72;60.17;100478.06;2102721;27;48187;-50
2022/04/09 00:05:24;;;;;;;;;6.00;5.00;;;;;8.72;60.25;100487.78;2100206;27;47363;-49
2022/04/09 00:06:25;;;;;;;;;4.25;4.25;;;;;8.71;60.23;100475.44;2091331;28;47700;-53
2022/04/09 00:07:25;;;;;;;;;7.00;6.00;;;;;8.70;60.15;100474.56;2093528;28;47833;-53
2022/04/09 00:08:25;;;;;;;;;6.00;6.00;;;;;8.70;60.30;100484.28;2099908;27;47873;-54
2022/04/09 00:09:26;;;;;;;;;8.25;7.75;;;;;8.70;60.39;100490.44;2109286;27;47332;-53
2022/04/09 00:10:26;;;;;;;;;5.25;5.25;;;;;8.70;60.20;100489.56;2109763;27;47540;-52
2022/04/09 00:11:27;;;;;;;;;7.00;7.00;;;;;8.69;60.34;100491.34;2084054;28;47667;-52
2022/04/09 00:12:27;;;;;;;;;9.50;7.00;;;;;8.70;60.32;100490.44;2084581;28;47558;-51
2022/04/09 00:13:27;;;;;;;;;6.00;6.00;;;;;8.70;60.42;100489.56;2101827;27;47532;-50
2022/04/09 00:14:28;;;;;;;;;6.50;6.50;;;;;8.70;59.99;100485.16;2104456;27;48047;-51
2022/04/09 00:15:28;;;;;;;;;5.00;5.00;;;;;8.70;60.09;100493.09;2100496;27;47767;-53
2022/04/09 00:16:29;;;;;;;;;6.00;6.00;;;;;8.69;60.14;100494.00;2085039;28;47805;-53
2022/04/09 00:17:36;;;;;;;;;6.50;5.00;;;;;8.69;60.09;100493.13;2085336;28;47563;-52
2022/04/09 00:18:36;;;;;;;;;6.00;6.00;;;;;8.68;59.99;100489.59;2084525;28;47862;-51
2022/04/09 00:19:36;;;;;;;;;6.00;6.00;;;;;8.68;60.31;100488.72;2083496;28;47290;-51
2022/04/09 00:20:37;;;;;;;;;4.25;4.25;;;;;8.69;60.30;100485.19;2077905;28;47883;-52
2022/04/09 00:21:38;;;;;;;;;4.25;4.25;;;;;8.70;60.29;100494.88;2077453;28;47810;-55
2022/04/09 00:22:39;;;;;;;;;6.25;6.25;;;;;8.70;60.24;100492.22;2077147;28;47558;-51
2022/04/09 00:23:39;;;;;;;;;4.60;4.60;;;;;8.70;60.34;100489.56;2078562;28;47934;-54
2022/04/09 00:24:40;;;;;;;;;7.25;5.25;;;;;8.70;60.24;100493.09;2085265;28;47607;-51
2022/04/09 00:25:41;;;;;;;;;3.75;3.75;;;;;8.69;59.93;100488.69;2084764;28;47637;-50
2022/04/09 00:26:42;;;;;;;;;5.67;5.00;;;;;8.70;60.06;100498.38;2084269;28;47336;-50
2022/04/09 00:27:42;;;;;;;;;8.80;5.60;;;;;8.69;59.92;100498.41;2084394;28;47922;-53
2022/04/09 00:28:42;;;;;;;;;6.75;6.00;;;;;8.69;60.05;100494.00;2085742;28;47621;-53
2022/04/09 00:29:43;;;;;;;;;5.00;5.00;;;;;8.69;60.00;100491.34;2087548;28;47553;-49
2022/04/09 00:30:43;;;;;;;;;6.25;6.25;;;;;8.70;59.89;100500.16;2083730;28;48063;-50
2022/04/09 00:31:43;;;;;;;;;6.25;6.25;;;;;8.70;60.01;100510.75;2086520;28;47221;-51
2022/04/09 00:32:45;;;;;;;;;5.25;5.25;;;;;8.69;59.90;100506.34;2085627;28;47397;-49
2022/04/09 00:33:46;;;;;;;;;5.60;5.60;;;;;8.70;59.94;100513.38;2087897;28;47843;-54
2022/04/09 00:34:46;;;;;;;;;5.00;5.00;;;;;8.69;59.98;100511.63;2085529;28;48023;-50
2022/04/09 00:35:47;;;;;;;;;6.00;6.00;;;;;8.69;59.98;100517.81;2085439;28;47961;-48
2022/04/09 00:36:47;;;;;;;;;5.60;5.60;;;;;8.70;59.96;100513.38;2085674;28;47373;-49
2022/04/09 00:37:48;;;;;;;;;6.75;6.75;;;;;8.71;59.96;100504.53;2084489;28;47415;-51
2022/04/09 00:38:48;;;;;;;;;5.50;4.25;;;;;8.72;60.09;100508.94;2085459;28;48076;-52
2022/04/09 00:39:49;;;;;;;;;6.00;6.00;;;;;8.74;60.02;100508.00;2076413;28;47611;-48
2022/04/09 00:40:49;;;;;;;;;6.50;6.50;;;;;8.74;59.90;100515.94;2075924;28;47111;-52
2022/04/09 00:41:50;;;;;;;;;5.00;5.00;;;;;8.76;60.00;100511.47;2086610;28;47846;-49
2022/04/09 00:42:51;;;;;;;;;6.75;6.75;;;;;8.76;60.02;100518.56;2081871;28;47295;-52
2022/04/09 00:43:51;;;;;;;;;4.25;4.25;;;;;8.76;60.05;100513.25;2084652;28;47476;-53
2022/04/09 00:44:52;;;;;;;;;5.50;4.75;;;;;8.76;60.18;100516.78;2085699;28;46064;-51
2022/04/09 00:45:52;;;;;;;;;5.00;4.00;;;;;8.76;60.30;100518.56;2084292;28;47616;-53
2022/04/09 00:46:53;;;;;;;;;5.00;5.00;;;;;8.76;60.09;100522.06;2075732;28;47498;-51
2022/04/09 00:47:54;;;;;;;;;9.50;4.75;;;;;8.77;60.22;100517.69;2077348;28;47960;-55
2022/04/09 00:48:55;;;;;;;;;4.80;4.60;;;;;8.75;59.89;100519.47;2090374;28;47838;-51
2022/04/09 00:49:55;;;;;;;;;6.00;6.00;;;;;8.75;60.02;100525.63;2091751;28;48313;-49
2022/04/09 00:50:55;;;;;;;;;4.50;4.50;;;;;8.74;59.97;100521.22;2092447;28;45794;-52
2022/04/09 00:51:56;;;;;;;;;5.50;5.50;;;;;8.74;60.02;100515.94;2091383;28;47599;-53
2022/04/09 00:52:59;;;;;;;;;5.60;5.60;;;;;8.74;59.75;100521.22;2091738;28;47879;-53
2022/04/09 00:54:00;;;;;;;;;4.40;4.40;;;;;8.74;59.97;100523.00;2090128;28;48058;-53
2022/04/09 00:55:04;;;;;;;;;4.20;4.20;;;;;8.74;59.60;100531.81;2090605;28;47875;-52
2022/04/09 00:56:15;;;;;;;;;5.00;5.00;;;;;8.74;59.81;100526.53;2089474;28;47616;-50
2022/04/09 00:57:19;;;;;;;;;4.60;3.80;;;;;8.72;59.77;100525.69;2083661;28;47950;-54
2022/04/09 00:58:20;;;;;;;;;5.40;4.80;;;;;8.72;59.56;100528.31;2084447;28;47811;-52
2022/04/09 00:59:23;;;;;;;;;4.60;4.60;;;;;8.70;59.68;100526.63;2092569;28;47756;-51
2022/04/09 01:00:23;;;;;;;;;4.00;4.00;;;;;8.70;59.64;100532.78;2091243;28;47465;-51
2022/04/09 01:01:27;;;;;;;;;4.75;4.75;;;;;8.68;59.52;100523.13;2089007;28;47593;-52
2022/04/09 01:02:27;;;;;;;;;4.80;4.80;;;;;8.67;59.54;100532.84;2090911;28;47874;-52
2022/04/09 01:03:28;;;;;;;;;3.75;3.75;;;;;8.66;59.67;100524.94;2090745;28;47943;-51
2022/04/09 01:04:30;;;;;;;;;4.00;4.00;;;;;8.65;60.01;100523.19;2092619;28;47907;-51
2022/04/09 01:05:31;;;;;;;;;4.80;4.80;;;;;8.64;59.63;100527.59;2088066;28;47275;-53
2022/04/09 01:06:32;;;;;;;;;5.75;5.75;;;;;8.64;59.63;100537.28;2088633;28;47651;-50
2022/04/09 01:07:34;;;;;;;;;4.80;4.80;;;;;8.64;59.82;100532.00;2094265;28;47645;-53
2022/04/09 01:08:35;;;;;;;;;3.40;3.40;;;;;8.64;59.95;100534.63;2094708;28;46523;-53
2022/04/09 01:09:35;;;;;;;;;5.00;5.00;;;;;8.64;59.81;100529.34;2092115;28;47417;-50
2022/04/09 01:10:37;;;;;;;;;3.50;3.50;;;;;8.64;59.72;100532.91;2092145;28;47392;-51
2022/04/09 01:11:39;;;;;;;;;4.20;4.20;;;;;8.64;59.86;100529.34;2091459;28;45936;-52
2022/04/09 01:12:40;;;;;;;;;6.00;6.00;;;;;8.64;59.53;100532.91;2092764;28;47988;-51
2022/04/09 01:13:42;;;;;;;;;5.00;5.00;;;;;8.65;59.91;100532.00;2090130;28;48110;-52
2022/04/09 01:14:43;;;;;;;;;3.60;3.60;;;;;8.66;59.80;100530.22;2092030;28;47449;-50
2022/04/09 01:15:43;;;;;;;;;4.60;4.00;;;;;8.66;59.76;100538.16;2090725;28;47914;-52
2022/04/09 01:16:44;;;;;;;;;4.75;4.75;;;;;8.67;59.76;100534.59;2090937;28;47594;-48
2022/04/09 01:17:44;;;;;;;;;6.75;5.00;;;;;8.68;59.73;100536.34;2092519;28;47393;-52
2022/04/09 01:18:46;;;;;;;;;5.80;5.80;;;;;8.68;59.90;100539.00;2088743;28;48288;-51
2022/04/09 01:19:47;;;;;;;;;4.00;4.00;;;;;8.68;59.80;100541.63;2092789;28;47334;-53
2022/04/09 01:20:47;;;;;;;;;4.00;4.00;;;;;8.67;59.23;100538.13;2100807;27;47444;-53
2022/04/09 01:21:48;;;;;;;;;9.00;6.75;;;;;8.67;59.82;100546.06;2100906;28;47271;-52
2022/04/09 01:22:49;;;;;;;;;6.20;6.20;;;;;8.67;59.69;100546.06;2100843;27;47445;-53
2022/04/09 01:23:50;;;;;;;;;5.00;5.00;;;;;8.67;59.81;100546.06;2101220;27;47899;-53
2022/04/09 01:24:50;;;;;;;;;4.75;4.75;;;;;8.67;59.71;100546.06;2100276;27;47335;-52
2022/04/09 01:25:50;;;;;;;;;6.25;6.00;;;;;8.68;59.62;100546.94;2102223;27;47606;-51
2022/04/09 01:26:52;;;;;;;;;6.00;6.00;;;;;8.68;59.66;100554.88;2100608;27;47995;-55
2022/04/09 01:27:52;;;;;;;;;4.20;4.20;;;;;8.68;59.63;100549.56;2102259;27;47409;-51
2022/04/09 01:28:53;;;;;;;;;5.50;5.50;;;;;8.68;59.71;100546.94;2103260;27;47879;-53
2022/04/09 01:29:53;;;;;;;;;8.25;5.75;;;;;8.66;59.71;100539.03;2100569;27;48434;-50
2022/04/09 01:30:54;;;;;;;;;7.00;7.00;;;;;8.67;59.43;100545.19;2100517;27;48017;-53
2022/04/09 01:31:54;;;;;;;;;5.00;5.00;;;;;8.67;59.64;100553.13;2101084;27;47638;-50
2022/04/09 01:32:55;;;;;;;;;4.50;4.50;;;;;8.67;59.77;100547.84;2101712;27;47845;-53
2022/04/09 01:33:56;;;;;;;;;4.20;4.20;;;;;8.66;59.50;100557.53;2099615;27;47888;-53
2022/04/09 01:35:00;;;;;;;;;5.75;5.75;;;;;8.66;59.80;100551.38;2102937;27;48398;-52
2022/04/09 01:36:01;;;;;;;;;4.80;4.80;;;;;8.66;59.95;100556.66;2102655;27;47855;-50
2022/04/09 01:37:01;;;;;;;;;4.50;4.50;;;;;8.65;59.81;100561.09;2101706;27;47118;-53
2022/04/09 01:38:01;;;;;;;;;5.00;4.00;;;;;8.66;59.92;100564.59;2101177;27;47539;-52
2022/04/09 01:39:02;;;;;;;;;4.00;4.00;;;;;8.66;59.58;100565.47;2092068;28;47342;-50
2022/04/09 01:40:03;;;;;;;;;5.25;5.25;;;;;8.66;59.56;100561.97;2093889;28;47386;-55
2022/04/09 01:41:04;;;;;;;;;4.00;4.00;;;;;8.67;59.52;100564.56;2098115;27;47883;-50
2022/04/09 01:42:10;;;;;;;;;6.60;6.40;;;;;8.68;59.82;100570.75;2102677;27;48409;-50
2022/04/09 01:43:10;;;;;;;;;4.60;4.00;;;;;8.68;59.68;100576.91;2093428;28;47375;-54
2022/04/09 01:44:11;;;;;;;;;2.50;2.50;;;;;8.70;59.71;100582.16;2091355;28;47523;-50
2022/04/09 01:45:11;;;;;;;;;6.00;4.75;;;;;8.70;59.71;100585.69;2103442;27;46940;-48
2022/04/09 01:46:12;;;;;;;;;3.00;3.00;;;;;8.71;59.60;100592.72;2103417;27;47892;-50
2022/04/09 01:47:12;;;;;;;;;3.00;3.00;;;;;8.71;59.49;100587.44;2103795;27;48072;-48
2022/04/09 01:48:13;;;;;;;;;4.00;4.00;;;;;8.72;59.53;100589.16;2101315;27;47521;-51
2022/04/09 01:49:13;;;;;;;;;3.50;3.50;;;;;8.74;59.66;100584.72;2101204;27;47617;-52
2022/04/09 01:50:14;;;;;;;;;4.00;4.00;;;;;8.75;59.61;100589.13;2101225;27;47906;-52
2022/04/09 01:51:14;;;;;;;;;3.00;3.00;;;;;8.76;59.49;100587.34;2101823;27;48005;-50
2022/04/09 01:52:14;;;;;;;;;3.25;3.25;;;;;8.77;59.66;100590.00;2100543;27;47992;-53
2022/04/09 01:53:15;;;;;;;;;3.25;3.00;;;;;8.78;59.23;100593.50;2101940;27;47488;-53
2022/04/09 01:54:16;;;;;;;;;2.25;2.00;;;;;8.77;59.32;100595.28;2103273;27;47657;-52
2022/04/09 01:55:16;;;;;;;;;4.00;3.33;;;;;8.76;59.34;100595.28;2101743;27;47710;-52
2022/04/09 01:56:16;;;;;;;;;3.33;3.33;;;;;8.75;59.29;100596.19;2100689;27;48370;-52
2022/04/09 01:57:17;;;;;;;;;4.00;3.00;;;;;8.75;59.50;100601.47;2074711;28;47950;-51
2022/04/09 01:58:17;;;;;;;;;3.50;3.25;;;;;8.75;59.22;100593.53;2076303;28;47047;-51
2022/04/09 01:59:18;;;;;;;;;4.00;4.00;;;;;8.74;59.19;100597.09;2101235;27;48046;-52
2022/04/09 02:00:18;;;;;;;;;3.00;3.00;;;;;8.73;59.31;100597.97;2100964;27;47689;-53
2022/04/09 02:01:19;;;;;;;;;4.50;2.75;;;;;8.74;59.28;100597.09;2102679;27;47933;-53
2022/04/09 02:02:19;;;;;;;;;3.00;3.00;;;;;8.73;59.25;100600.63;2100874;27;47689;-49
2022/04/09 02:03:19;;;;;;;;;3.33;2.33;;;;;8.72;59.32;100593.59;2100345;27;47426;-53
2022/04/09 02:04:20;;;;;;;;;4.00;4.00;;;;;8.71;59.03;100603.31;2091713;28;48115;-51
2022/04/09 02:05:21;;;;;;;;;2.67;2.67;;;;;8.72;59.08;100604.19;2099360;27;47760;-53
2022/04/09 02:06:22;;;;;;;;;4.00;4.00;;;;;8.71;59.37;100602.44;2105253;27;47771;-51
2022/04/09 02:07:22;;;;;;;;;4.50;4.50;;;;;8.71;59.12;100598.00;2098524;27;45715;-53
2022/04/09 02:08:23;;;;;;;;;5.50;4.25;;;;;8.70;59.37;100604.19;2099991;27;47125;-52
2022/04/09 02:09:23;;;;;;;;;2.50;2.50;;;;;8.70;59.25;100596.28;2100890;27;47455;-50
2022/04/09 02:10:24;;;;;;;;;3.50;3.50;;;;;8.70;59.25;100604.19;2102033;27;46617;-52
2022/04/09 02:11:24;;;;;;;;;5.50;4.75;;;;;8.69;59.34;100607.75;2101289;27;46554;-56
2022/04/09 02:12:25;;;;;;;;;3.50;3.00;;;;;8.68;59.45;100611.28;2101741;27;47873;-53
2022/04/09 02:13:25;;;;;;;;;4.00;4.00;;;;;8.67;59.51;100606.03;2092440;28;47832;-53
2022/04/09 02:14:25;;;;;;;;;2.33;2.33;;;;;8.67;59.74;100613.97;2092747;28;47695;-50
2022/04/09 02:15:26;;;;;;;;;4.75;4.75;;;;;8.68;59.77;100613.06;2101310;27;47467;-50
2022/04/09 02:16:27;;;;;;;;;4.50;4.50;;;;;8.68;59.78;100613.06;2101186;27;47998;-51
2022/04/09 02:17:27;;;;;;;;;2.80;2.80;;;;;8.69;59.94;100614.81;2100729;27;48568;-49
2022/04/09 02:18:28;;;;;;;;;6.00;6.00;;;;;8.68;60.04;100608.66;2100292;27;47759;-53
2022/04/09 02:19:28;;;;;;;;;6.75;4.00;;;;;8.69;60.13;100610.41;2103382;27;47280;-49
2022/04/09 02:20:29;;;;;;;;;4.75;3.50;;;;;8.69;59.87;100610.41;2104046;27;48046;-50
2022/04/09 02:21:29;;;;;;;;;3.00;3.00;;;;;8.71;59.98;100615.66;2100797;27;47302;-51
2022/04/09 02:22:37;;;;;;;;;3.00;3.00;;;;;8.71;60.41;100607.72;2102509;27;47306;-53
2022/04/09 02:23:38;;;;;;;;;3.75;3.75;;;;;8.72;60.23;100612.13;2101979;27;47588;-51
2022/04/09 02:24:40;;;;;;;;;2.75;2.75;;;;;8.72;60.18;100618.28;2101939;27;45890;-52
2022/04/09 02:25:40;;;;;;;;;3.00;3.00;;;;;8.74;60.21;100610.31;2100736;27;47809;-52
2022/04/09 02:26:40;;;;;;;;;4.75;4.50;;;;;8.76;60.28;100613.81;2100699;27;48185;-52
2022/04/09 02:27:41;;;;;;;;;5.00;5.00;;;;;8.75;59.91;100609.41;2076134;28;47731;-50
2022/04/09 02:28:41;;;;;;;;;6.00;4.33;;;;;8.74;60.03;100616.47;2073631;28;47763;-51
2022/04/09 02:29:42;;;;;;;;;4.75;4.75;;;;;8.74;60.07;100619.13;2100701;27;47361;-47
2022/04/09 02:30:43;;;;;;;;;4.00;4.00;;;;;8.74;60.00;100618.25;2101385;27;47371;-51
2022/04/09 02:31:43;;;;;;;;;4.00;4.00;;;;;8.75;60.05;100612.06;2102510;27;47224;-51
2022/04/09 02:32:51;;;;;;;;;5.50;5.50;;;;;8.75;60.30;100612.06;2101468;27;48013;-50
2022/04/09 02:33:53;;;;;;;;;2.40;1.40;;;;;8.75;59.91;100610.28;2104002;27;47698;-50
2022/04/09 02:34:56;;;;;;;;;5.40;4.00;;;;;8.76;59.98;100606.72;2101496;27;47819;-52
2022/04/09 02:35:56;;;;;;;;;4.40;4.40;;;;;8.77;59.90;100603.22;2100904;27;47542;-48
2022/04/09 02:36:56;;;;;;;;;4.50;3.50;;;;;8.77;59.80;100611.16;2100201;28;47375;-50
2022/04/09 02:37:57;;;;;;;;;6.00;5.00;;;;;8.78;60.05;100606.75;2090182;28;48070;-52
2022/04/09 02:38:58;;;;;;;;;5.00;5.00;;;;;8.80;60.04;100607.59;2091107;28;47363;-51
2022/04/09 02:39:59;;;;;;;;;4.40;4.40;;;;;8.78;59.83;100604.97;2101446;27;47444;-52
2022/04/09 02:41:00;;;;;;;;;4.50;4.50;;;;;8.80;60.07;100608.47;2101749;27;47709;-53
2022/04/09 02:42:00;;;;;;;;;3.40;3.40;;;;;8.81;60.12;100604.03;2102017;27;47510;-49
2022/04/09 02:43:01;;;;;;;;;6.00;4.75;;;;;8.82;60.12;100605.78;2103876;27;48032;-52
2022/04/09 02:44:02;;;;;;;;;5.50;5.50;;;;;8.84;60.15;100606.63;2102080;27;47143;-54
2022/04/09 02:45:07;;;;;;;;;5.60;5.60;;;;;8.84;60.26;100615.44;2103836;27;47534;-52
2022/04/09 02:46:08;;;;;;;;;6.60;6.20;;;;;8.85;60.22;100622.47;2099914;27;48326;-48
2022/04/09 02:47:09;;;;;;;;;4.00;4.00;;;;;8.85;60.08;100624.25;2100565;28;47558;-51
2022/04/09 02:48:10;;;;;;;;;5.00;5.00;;;;;8.84;60.14;100626.03;2100668;27;47720;-50
2022/04/09 02:49:10;;;;;;;;;7.40;7.20;;;;;8.85;60.05;100632.19;2101720;27;47527;-52
2022/04/09 02:50:12;;;;;;;;;5.25;4.25;;;;;8.84;60.08;100635.72;2084133;28;45750;-52
2022/04/09 02:51:12;;;;;;;;;5.40;5.40;;;;;8.84;60.01;100635.72;2084257;28;47641;-51
2022/04/09 02:52:13;;;;;;;;;4.50;4.50;;;;;8.82;60.14;100637.53;2082306;28;47855;-52
2022/04/09 02:53:14;;;;;;;;;5.00;5.00;;;;;8.81;60.00;100635.78;2086506;28;47895;-51
2022/04/09 02:54:16;;;;;;;;;5.00;5.00;;;;;8.79;59.86;100635.81;2083815;28;47223;-50
2022/04/09 02:55:16;;;;;;;;;5.20;5.20;;;;;8.79;59.82;100643.75;2083527;28;47755;-48
2022/04/09 02:56:17;;;;;;;;;4.00;4.00;;;;;8.79;60.04;100637.59;2080052;28;47503;-50
2022/04/09 02:57:17;;;;;;;;;5.00;5.00;;;;;8.79;60.10;100640.25;2082535;28;47643;-50
2022/04/09 02:58:17;;;;;;;;;6.50;4.00;;;;;8.79;60.14;100637.59;2086454;28;56697;-53
2022/04/09 02:59:18;;;;;;;;;4.50;4.50;;;;;8.78;60.11;100636.72;2085466;28;47236;-52
2022/04/09 03:00:18;;;;;;;;;4.25;4.25;;;;;8.78;60.12;100636.72;2082709;28;47258;-50
2022/04/09 03:01:19;;;;;;;;;4.50;4.50;;;;;8.79;60.31;100637.59;2086217;28;48491;-51
2022/04/09 03:02:19;;;;;;;;;5.00;5.00;;;;;8.79;60.33;100632.28;2083279;28;47624;-51
2022/04/09 03:03:19;;;;;;;;;7.25;5.50;;;;;8.80;60.05;100637.56;2082937;28;47841;-48
2022/04/09 03:04:20;;;;;;;;;5.75;5.50;;;;;8.79;60.03;100640.25;2086776;28;47408;-51
2022/04/09 03:05:20;;;;;;;;;5.00;5.00;;;;;8.80;60.26;100642.84;2083044;28;47150;-52
2022/04/09 03:06:21;;;;;;;;;4.75;4.25;;;;;8.81;60.12;100641.94;2083864;28;47836;-50
2022/04/09 03:07:22;;;;;;;;;5.00;4.50;;;;;8.80;60.08;100636.69;2084753;28;47180;-52
2022/04/09 03:08:22;;;;;;;;;8.00;5.50;;;;;8.82;59.90;100640.19;2058500;28;47536;-51
2022/04/09 03:09:23;;;;;;;;;6.75;6.00;;;;;8.80;60.02;100637.56;2049462;28;47574;-49
2022/04/09 03:10:23;;;;;;;;;5.75;5.75;;;;;8.82;60.20;100637.53;2077364;28;47483;-49
2022/04/09 03:11:24;;;;;;;;;5.75;5.75;;;;;8.81;59.92;100644.59;2085464;28;47684;-52
2022/04/09 03:12:24;;;;;;;;;7.00;5.75;;;;;8.82;60.07;100642.81;2084721;28;47514;-49
2022/04/09 03:13:25;;;;;;;;;5.50;5.50;;;;;8.82;59.98;100654.28;2064359;28;47789;-51
2022/04/09 03:14:25;;;;;;;;;5.75;5.75;;;;;8.82;60.06;100654.28;2068762;28;46865;-52
2022/04/09 03:15:26;;;;;;;;;5.50;5.50;;;;;8.81;60.39;100657.84;2067706;28;47211;-53
2022/04/09 03:16:26;;;;;;;;;5.20;5.20;;;;;8.82;60.28;100667.50;2069250;28;47211;-49
2022/04/09 03:17:27;;;;;;;;;5.75;5.75;;;;;8.82;60.25;100666.66;2066404;28;47264;-51
2022/04/09 03:18:27;;;;;;;;;5.00;5.00;;;;;8.81;60.19;100667.53;2067384;28;47780;-51
2022/04/09 03:19:28;;;;;;;;;8.75;5.00;;;;;8.81;60.37;100678.13;2068202;28;47846;-51
2022/04/09 03:20:28;;;;;;;;;7.50;5.75;;;;;8.80;60.36;100668.44;2069456;28;47048;-51
2022/04/09 03:21:29;;;;;;;;;7.00;6.00;;;;;8.80;60.43;100668.44;2068555;28;46492;-52
2022/04/09 03:22:30;;;;;;;;;6.00;6.00;;;;;8.78;60.42;100672.88;2085207;28;47285;-49
2022/04/09 03:23:30;;;;;;;;;7.60;5.60;;;;;8.76;60.21;100677.31;2085182;28;47430;-50
2022/04/09 03:24:30;;;;;;;;;6.00;6.00;;;;;8.73;60.49;100674.72;2085088;28;47888;-52
2022/04/09 03:25:31;;;;;;;;;6.50;6.50;;;;;8.71;60.53;100677.38;2084749;28;47260;-51
2022/04/09 03:26:31;;;;;;;;;5.75;5.75;;;;;8.70;60.60;100675.63;2084320;28;46739;-49
2022/04/09 03:27:32;;;;;;;;;7.00;7.00;;;;;8.70;60.87;100672.13;2084967;28;47435;-52
2022/04/09 03:28:32;;;;;;;;;7.25;7.25;;;;;8.70;61.50;100680.06;2083253;28;47626;-52
2022/04/09 03:29:33;;;;;;;;;7.00;6.00;;;;;8.69;61.61;100676.53;2066823;28;46004;-50
2022/04/09 03:30:33;;;;;;;;;6.00;6.00;;;;;8.68;61.67;100677.44;2068259;28;47444;-52
2022/04/09 03:31:35;;;;;;;;;7.00;7.00;;;;;8.68;61.54;100676.56;2067715;28;48024;-51
2022/04/09 03:32:36;;;;;;;;;6.20;6.20;;;;;8.68;61.20;100672.13;2067645;28;46880;-51
2022/04/09 03:33:37;;;;;;;;;6.60;5.80;;;;;8.68;61.10;100679.22;2066838;28;47913;-51
2022/04/09 03:34:38;;;;;;;;;5.00;5.00;;;;;8.68;61.13;100685.38;2069101;28;47884;-52
2022/04/09 03:35:40;;;;;;;;;5.00;5.00;;;;;8.67;61.19;100680.09;2068705;28;48091;-50
2022/04/09 03:36:42;;;;;;;;;5.60;5.00;;;;;8.68;61.00;100687.16;2066805;28;48459;-53
2022/04/09 03:37:42;;;;;;;;;5.00;5.00;;;;;8.68;61.06;100693.31;2068141;28;47426;-53
2022/04/09 03:38:43;;;;;;;;;5.00;5.00;;;;;8.66;61.04;100684.53;2067957;28;47697;-52
2022/04/09 03:39:44;;;;;;;;;4.75;4.75;;;;;8.67;61.00;100688.03;2064673;28;47619;-52
2022/04/09 03:40:45;;;;;;;;;4.25;4.25;;;;;8.68;60.84;100695.94;2066564;28;47864;-53
2022/04/09 03:41:45;;;;;;;;;3.80;3.80;;;;;8.68;60.88;100695.09;2068766;28;47642;-52
2022/04/09 03:42:46;;;;;;;;;4.00;4.00;;;;;8.69;61.10;100696.81;2068654;28;47608;-50
2022/04/09 03:43:48;;;;;;;;;5.00;5.00;;;;;8.68;61.06;100698.59;2066801;28;48005;-52
2022/04/09 03:44:49;;;;;;;;;5.60;5.60;;;;;8.68;60.67;100701.25;2069253;28;47821;-51
2022/04/09 03:45:49;;;;;;;;;5.00;5.00;;;;;8.68;60.84;100703.00;2085907;28;54472;-52
2022/04/09 03:46:57;;;;;;;;;8.50;6.75;;;;;8.67;60.45;100699.50;2084955;28;47979;-53
2022/04/09 03:47:57;;;;;;;;;5.60;5.60;;;;;8.66;60.39;100700.41;2086455;28;47815;-54
2022/04/09 03:48:57;;;;;;;;;7.00;7.00;;;;;8.65;60.20;100706.59;2070309;28;45688;-53
2022/04/09 03:50:03;;;;;;;;;5.00;5.00;;;;;8.64;60.10;100710.13;2061498;28;47415;-49
2022/04/09 03:51:04;;;;;;;;;7.60;6.80;;;;;8.62;60.08;100711.91;2061419;28;47220;-49
2022/04/09 03:52:05;;;;;;;;;6.50;5.25;;;;;8.61;60.03;100714.56;2070632;28;47478;-51
2022/04/09 03:53:05;;;;;;;;;2.50;2.50;;;;;8.59;60.02;100713.72;2070001;28;47524;-51
2022/04/09 03:54:06;;;;;;;;;6.25;5.75;;;;;8.58;59.99;100720.78;2069533;28;47789;-49
2022/04/09 03:55:07;;;;;;;;;5.25;5.25;;;;;8.58;59.99;100722.53;2069127;28;47414;-52
2022/04/09 03:56:07;;;;;;;;;5.50;5.50;;;;;8.57;60.05;100718.16;2066423;28;48133;-51
2022/04/09 03:57:09;;;;;;;;;4.50;4.50;;;;;8.57;60.09;100715.50;2070253;28;47701;-50
2022/04/09 03:58:10;;;;;;;;;6.20;5.80;;;;;8.56;60.21;100722.56;2068920;28;48098;-49
2022/04/09 03:59:10;;;;;;;;;6.60;6.40;;;;;8.57;60.04;100719.03;2070263;28;47524;-55
2022/04/09 04:00:13;;;;;;;;;5.25;5.25;;;;;8.57;59.98;100716.38;2069257;28;47262;-52
2022/04/09 04:01:14;;;;;;;;;6.00;6.00;;;;;8.58;60.19;100717.25;2077295;28;47319;-53
2022/04/09 04:02:15;;;;;;;;;7.75;5.50;;;;;8.57;60.43;100707.56;2086627;28;47597;-52
2022/04/09 04:03:15;;;;;;;;;7.50;6.25;;;;;8.56;60.23;100717.28;2085012;28;47844;-52
2022/04/09 04:04:16;;;;;;;;;5.25;5.25;;;;;8.57;60.36;100713.75;2079312;28;50937;-53
2022/04/09 04:05:17;;;;;;;;;5.00;5.00;;;;;8.58;60.16;100714.63;2084639;28;47714;-53
2022/04/09 04:06:17;;;;;;;;;6.00;6.00;;;;;8.58;60.64;100723.41;2083373;28;48198;-50
2022/04/09 04:07:22;;;;;;;;;5.25;5.25;;;;;8.60;60.54;100720.75;2086579;28;47495;-51
2022/04/09 04:08:22;;;;;;;;;7.20;6.00;;;;;8.59;60.27;100721.66;2086708;28;48130;-50
2022/04/09 04:09:23;;;;;;;;;5.00;5.00;;;;;8.59;60.29;100719.00;2086103;28;47661;-52
2022/04/09 04:10:23;;;;;;;;;5.00;5.00;;;;;8.59;60.20;100724.28;2084331;28;47707;-49
2022/04/09 04:11:24;;;;;;;;;6.25;5.50;;;;;8.59;60.15;100717.22;2084621;28;47398;-50
2022/04/09 04:12:26;;;;;;;;;6.25;6.25;;;;;8.58;60.10;100719.91;2090552;28;48216;-49
2022/04/09 04:13:26;;;;;;;;;4.80;4.80;;;;;8.58;60.09;100715.50;2085624;28;47746;-51
2022/04/09 04:14:28;;;;;;;;;6.00;6.00;;;;;8.58;60.16;100719.91;2086545;28;47786;-49
2022/04/09 04:15:28;;;;;;;;;7.40;6.20;;;;;8.58;60.00;100720.78;2086480;28;47261;-52
2022/04/09 04:16:29;;;;;;;;;4.50;4.25;;;;;8.58;60.03;100719.91;2081128;28;47770;-52
2022/04/09 04:17:43;;;;;;;;;5.00;5.00;;;;;8.57;60.18;100724.31;2078526;28;47630;-50
2022/04/09 04:18:44;;;;;;;;;3.80;3.80;;;;;8.58;60.25;100722.53;2083555;28;47812;-50
2022/04/09 04:19:44;;;;;;;;;3.50;3.50;;;;;8.58;60.36;100728.72;2089612;28;47364;-48
2022/04/09 04:20:44;;;;;;;;;4.25;4.25;;;;;8.58;60.37;100726.06;2086520;28;47529;-52
2022/04/09 04:21:45;;;;;;;;;3.00;3.00;;;;;8.58;60.39;100727.84;2084828;28;47673;-49
2022/04/09 04:22:45;;;;;;;;;4.00;4.00;;;;;8.58;60.60;100730.50;2086386;28;47584;-52
2022/04/09 04:23:46;;;;;;;;;4.00;4.00;;;;;8.59;60.56;100724.28;2086663;28;47287;-51
2022/04/09 04:24:46;;;;;;;;;4.25;3.75;;;;;8.59;60.66;100733.09;2082673;28;47559;-52
2022/04/09 04:25:46;;;;;;;;;3.75;3.75;;;;;8.59;60.76;100721.66;2078223;28;48320;-52
2022/04/09 04:26:47;;;;;;;;;2.33;2.33;;;;;8.59;60.94;100719.88;2071469;28;47917;-48
2022/04/09 04:27:51;;;;;;;;;3.00;3.00;;;;;8.58;60.62;100715.50;2089152;28;46126;-53
2022/04/09 04:28:52;;;;;;;;;4.00;4.00;;;;;8.58;60.82;100711.97;2104218;27;47494;-50
2022/04/09 04:29:52;;;;;;;;;3.00;3.00;;;;;8.57;60.72;100713.75;2103348;28;47406;-51
2022/04/09 04:30:53;;;;;;;;;3.00;3.00;;;;;8.57;60.48;100715.50;2103493;27;48793;-52
2022/04/09 04:31:53;;;;;;;;;3.00;3.00;;;;;8.56;60.53;100717.28;2104348;28;47607;-49
2022/04/09 04:32:53;;;;;;;;;4.50;4.50;;;;;8.55;60.81;100716.41;2104079;28;54734;-50
2022/04/09 04:33:54;;;;;;;;;4.50;4.00;;;;;8.54;60.80;100717.31;2104730;28;47477;-50
2022/04/09 04:34:54;;;;;;;;;5.00;5.00;;;;;8.53;60.78;100718.22;2104547;28;47063;-52
2022/04/09 04:35:55;;;;;;;;;4.75;4.75;;;;;8.54;60.60;100719.94;2102017;28;48141;-50
2022/04/09 04:36:55;;;;;;;;;3.75;3.50;;;;;8.55;60.77;100713.75;2101322;27;47655;-49
2022/04/09 04:37:55;;;;;;;;;5.00;4.75;;;;;8.57;60.84;100720.81;2103996;28;47586;-49
2022/04/09 04:38:56;;;;;;;;;4.50;4.50;;;;;8.55;60.63;100719.06;2094579;28;47346;-52
2022/04/09 04:39:56;;;;;;;;;2.25;2.25;;;;;8.53;60.71;100726.13;2086559;28;46302;-53
2022/04/09 04:40:57;;;;;;;;;4.25;4.25;;;;;8.53;61.00;100722.63;2095116;28;47246;-52
2022/04/09 04:41:57;;;;;;;;;4.75;4.75;;;;;8.53;60.74;100725.28;2104071;27;48040;-51
2022/04/09 04:42:57;;;;;;;;;5.75;4.50;;;;;8.53;60.79;100726.13;2103129;28;47878;-50
2022/04/09 04:43:58;;;;;;;;;3.75;3.75;;;;;8.52;60.54;100724.41;2104394;28;48137;-51
2022/04/09 04:44:58;;;;;;;;;3.75;3.75;;;;;8.51;60.52;100722.66;2104422;28;47545;-52
2022/04/09 04:45:59;;;;;;;;;4.50;4.00;;;;;8.51;60.47;100727.94;2104069;28;47331;-51
2022/04/09 04:46:59;;;;;;;;;4.00;4.00;;;;;8.53;60.62;100730.56;2103952;28;47823;-52